createdAt,value
2024-01-24T00:00:59.490Z,2.799
2024-01-24T00:05:50.650Z,4.857
2024-01-24T00:10:52.955Z,5.387
2024-01-24T00:15:58.450Z,3.492
2024-01-24T00:20:54.556Z,5.224
2024-01-24T00:25:58.374Z,3.627
2024-01-24T00:30:55.748Z,3.507
2024-01-24T00:35:48.822Z,3.096
2024-01-24T00:40:54.112Z,2.999
2024-01-24T00:45:57.164Z,2.961
2024-01-24T00:50:56.631Z,5.133
2024-01-24T00:55:51.170Z,3.6
2024-01-24T01:00:50.927Z,3.497
2024-01-24T01:05:51.645Z,5.766
2024-01-24T01:10:47.680Z,4.744
2024-01-24T01:15:55.024Z,9.73
2024-01-24T01:20:50.540Z,6.573
2024-01-24T01:25:53.454Z,2.338
2024-01-24T01:30:51.026Z,4.883
2024-01-24T01:35:49.308Z,3.967
2024-01-24T01:40:51.145Z,4.574
2024-01-24T01:45:47.355Z,7.543
2024-01-24T01:50:58.345Z,5.793
2024-01-24T01:55:49.272Z,7.824
2024-01-24T02:00:51.635Z,8.01
2024-01-24T02:05:50.793Z,6.942
2024-01-24T02:10:52.062Z,6.953
2024-01-24T02:15:52.691Z,14.269
2024-01-24T02:20:51.746Z,8.529
2024-01-24T02:25:53.040Z,9.655
2024-01-24T02:30:51.453Z,10.95
2024-01-24T02:35:50.817Z,9.905
2024-01-24T02:40:55.644Z,10.711
2024-01-24T02:45:53.921Z,13.068
2024-01-24T02:50:49.590Z,10.198
2024-01-24T02:55:51.348Z,9.542
2024-01-24T03:00:53.936Z,9.396
2024-01-24T03:05:53.024Z,11.8
2024-01-24T03:10:51.350Z,13.891
2024-01-24T03:15:53.399Z,12.186
2024-01-24T03:20:51.119Z,13.285
2024-01-24T03:25:49.618Z,17.698
2024-01-24T03:30:47.821Z,15.315
2024-01-24T03:35:51.814Z,15.017
2024-01-24T03:40:51.435Z,15.235
2024-01-24T03:45:51.152Z,14.904
2024-01-24T03:50:54.778Z,16.474
2024-01-24T03:55:58.597Z,18.023
2024-01-24T04:00:55.056Z,14.438
2024-01-24T04:05:58.146Z,18.469
2024-01-24T04:10:52.507Z,15.825
2024-01-24T04:15:48.656Z,18.95
2024-01-24T04:20:54.965Z,17.716
2024-01-24T04:25:46.296Z,22.741
2024-01-24T04:30:55.101Z,18.1
2024-01-24T04:35:54.453Z,23.728
2024-01-24T04:40:50.326Z,19.42
2024-01-24T04:45:50.640Z,22.936
2024-01-24T04:50:52.997Z,26.475
2024-01-24T04:55:54.538Z,21.952
2024-01-24T05:00:51.072Z,23.116
2024-01-24T05:06:12.355Z,17.439
2024-01-24T05:10:51.533Z,20.521
2024-01-24T05:15:48.784Z,23.906
2024-01-24T05:20:48.199Z,23.018
2024-01-24T05:25:52.987Z,22.308
2024-01-24T05:30:50.669Z,22.363
2024-01-24T05:35:52.057Z,20.607
2024-01-24T05:40:50.826Z,23.071
2024-01-24T05:45:47.871Z,19.551
2024-01-24T05:50:56.363Z,20.071
2024-01-24T05:55:50.017Z,23.436
2024-01-24T06:00:59.371Z,22.06
2024-01-24T06:06:01.658Z,22.753
2024-01-24T06:10:57.398Z,19.882
2024-01-24T06:15:51.410Z,23.295
2024-01-24T06:20:53.530Z,27.568
2024-01-24T06:25:56.274Z,25.07
2024-01-24T06:30:56.895Z,20.797
2024-01-24T06:35:57.139Z,23.873
2024-01-24T06:41:02.076Z,19.411
2024-01-24T06:45:59.799Z,19.301
2024-01-24T06:51:00.413Z,21.435
2024-01-24T06:55:58.245Z,19.975
2024-01-24T07:00:59.094Z,22.672
2024-01-24T07:05:58.335Z,22.889
2024-01-24T07:10:56.165Z,18.916
2024-01-24T07:15:59.211Z,19.216
2024-01-24T07:20:51.816Z,20.634
2024-01-24T07:25:51.317Z,20.163
2024-01-24T07:30:56.455Z,21.279
2024-01-24T07:35:51.592Z,20.802
2024-01-24T07:40:55.135Z,22.947
2024-01-24T07:45:56.200Z,21.04
2024-01-24T07:50:53.601Z,21.134
2024-01-24T07:56:28.873Z,19.453
2024-01-24T08:00:51.966Z,21.632
2024-01-24T08:05:51.326Z,23.068
2024-01-24T08:10:53.461Z,22.156
2024-01-24T08:15:54.871Z,25.548
2024-01-24T08:20:54.737Z,19.703
2024-01-24T08:25:54.686Z,23.96
2024-01-24T08:30:55.378Z,23.982
2024-01-24T08:35:52.122Z,24.285
2024-01-24T08:40:54.109Z,19.595
2024-01-24T08:45:54.445Z,24.814
2024-01-24T08:50:54.444Z,19.845
2024-01-24T08:55:54.780Z,18.024
2024-01-24T09:01:03.842Z,25.342
2024-01-24T09:05:59.752Z,22.06
2024-01-24T09:11:03.957Z,22.341
2024-01-24T09:16:01.216Z,21.49
2024-01-24T09:20:59.265Z,18.165
2024-01-24T09:26:01.141Z,21.138
2024-01-24T09:30:56.868Z,17.953
2024-01-24T09:35:57.204Z,18.208
2024-01-24T09:40:59.736Z,20.83
2024-01-24T09:46:02.382Z,17.721
2024-01-24T09:51:02.888Z,20.894
2024-01-24T09:56:01.492Z,14.58
2024-01-24T10:00:56.719Z,20.792
2024-01-24T10:06:02.246Z,17.823
2024-01-24T10:10:57.144Z,21.67
2024-01-24T10:16:07.701Z,16.124
2024-01-24T10:20:57.504Z,19.492
2024-01-24T10:26:01.100Z,18.327
2024-01-24T10:31:00.886Z,22.219
2024-01-24T10:36:10.614Z,17.227
2024-01-24T10:40:57.400Z,18.403
2024-01-24T10:45:58.130Z,20.874
2024-01-24T10:50:55.854Z,21.777
2024-01-24T10:55:56.141Z,23.922
2024-01-24T11:00:58.015Z,17.938
2024-01-24T11:06:00.676Z,22.402
2024-01-24T11:10:54.065Z,18.798
2024-01-24T11:16:00.667Z,20.803
2024-01-24T11:20:52.735Z,21.074
2024-01-24T11:25:56.573Z,21.475
2024-01-24T11:30:59.585Z,17.591
2024-01-24T11:35:58.204Z,19.4
2024-01-24T11:40:58.370Z,17.028
2024-01-24T11:46:01.029Z,20.207
2024-01-24T11:50:59.807Z,18.999
2024-01-24T11:55:57.386Z,19.525
2024-01-24T12:00:57.320Z,19.42
2024-01-24T12:05:59.557Z,19.118
2024-01-24T12:10:53.700Z,19.064
2024-01-24T12:15:55.743Z,22.087
2024-01-24T12:21:05.325Z,18.442
2024-01-24T12:25:59.036Z,19.518
2024-01-24T12:30:57.566Z,16.871
2024-01-24T12:35:56.843Z,17.043
2024-01-24T12:41:03.151Z,21.02
2024-01-24T12:45:59.941Z,15.582
2024-01-24T12:51:04.086Z,18.083
2024-01-24T12:55:55.147Z,21.6
2024-01-24T13:01:01.896Z,18.961
2024-01-24T13:06:01.186Z,25.045
2024-01-24T13:10:56.207Z,24.394
2024-01-24T13:15:58.390Z,19.66
2024-01-24T13:20:53.322Z,18.999
2024-01-24T13:25:55.529Z,21.187
2024-01-24T13:31:01.858Z,21.35
2024-01-24T13:35:54.256Z,19.366
2024-01-24T13:40:55.247Z,21.945
2024-01-24T13:45:58.312Z,18.327
2024-01-24T13:50:59.779Z,20.045
2024-01-24T13:55:53.983Z,20.072
2024-01-24T14:01:00.333Z,22.991
2024-01-24T14:05:56.916Z,25.705
2024-01-24T14:10:54.122Z,23.467
2024-01-24T14:16:45.136Z,22.774
2024-01-24T14:20:58.583Z,21.837
2024-01-24T14:26:04.546Z,16.86
2024-01-24T14:31:01.588Z,20.689
2024-01-24T14:35:57.995Z,21.215
2024-01-24T14:40:58.596Z,29.046
2024-01-24T14:45:53.592Z,32.188
2024-01-24T14:50:56.572Z,27.612
2024-01-24T14:55:53.063Z,31.966
2024-01-24T15:00:58.447Z,30.672
2024-01-24T15:05:51.833Z,30.508
2024-01-24T15:10:59.591Z,26.354
2024-01-24T15:15:57.273Z,33.948
2024-01-24T15:21:17.069Z,37.962
2024-01-24T15:25:59.277Z,28.89
2024-01-24T15:30:54.061Z,25.986
2024-01-24T15:35:53.065Z,30.877
2024-01-24T15:40:54.427Z,34.815
2024-01-24T15:45:59.532Z,33.953
2024-01-24T15:50:57.589Z,34.983
2024-01-24T15:55:55.655Z,32.362
2024-01-24T16:00:59.887Z,28.657
2024-01-24T16:05:54.021Z,30.727
2024-01-24T16:11:00.587Z,31.788
2024-01-24T16:16:02.801Z,37.941
2024-01-24T16:20:54.374Z,34.024
2024-01-24T16:25:57.797Z,35.103
2024-01-24T16:30:58.850Z,36.342
2024-01-24T16:35:59.652Z,47.462
2024-01-24T16:40:54.132Z,35.714
2024-01-24T16:46:00.090Z,39.961
2024-01-24T16:50:55.516Z,39.566
2024-01-24T16:55:49.085Z,33.808
2024-01-24T17:00:57.133Z,39.934
2024-01-24T17:05:53.768Z,50.424
2024-01-24T17:10:53.787Z,38.867
2024-01-24T17:15:56.321Z,37.138
2024-01-24T17:20:53.836Z,34.18
2024-01-24T17:25:52.102Z,40.936
2024-01-24T17:30:54.092Z,47.554
2024-01-24T17:35:57.535Z,41.526
2024-01-24T17:40:53.160Z,50.323
2024-01-24T17:45:53.336Z,45.653
2024-01-24T17:50:54.760Z,41.223
2024-01-24T17:55:54.612Z,29.345
2024-01-24T18:01:03.513Z,5.451
2024-01-24T18:05:57.760Z,6.292
2024-01-24T18:10:54.454Z,8.425
2024-01-24T18:15:57.100Z,3.984
2024-01-24T18:20:56.026Z,3.785
2024-01-24T18:25:59.594Z,3.03
2024-01-24T18:30:46.757Z,2.241
2024-01-24T18:35:53.267Z,2.739
2024-01-24T18:40:55.089Z,1.363
2024-01-24T18:45:55.946Z,2.49
2024-01-24T18:50:52.625Z,2.815
2024-01-24T18:55:49.656Z,4.781
2024-01-24T19:00:53.429Z,2.896
2024-01-24T19:05:53.672Z,16.245
2024-01-24T19:10:59.581Z,4.136
2024-01-24T19:15:55.582Z,4.174
2024-01-24T19:20:52.810Z,2.961
2024-01-24T19:25:53.439Z,3.297
2024-01-24T19:30:54.836Z,4.115
2024-01-24T19:35:57.217Z,6.703
2024-01-24T19:40:54.948Z,3.947
2024-01-24T19:45:51.370Z,5.637
2024-01-24T19:50:55.323Z,4.261
2024-01-24T19:55:52.493Z,5.674
2024-01-24T20:00:55.209Z,3.193
2024-01-24T20:05:51.721Z,5.572
2024-01-24T20:10:55.212Z,4.228
2024-01-24T20:16:01.294Z,6.427
2024-01-24T20:20:55.880Z,6.069
2024-01-24T20:25:48.169Z,3.844
2024-01-24T20:30:54.600Z,5.248
2024-01-24T20:35:59.871Z,4.396
2024-01-24T20:40:48.160Z,5.085
2024-01-24T20:45:53.480Z,4.932
2024-01-24T20:50:53.368Z,12.634
2024-01-24T20:55:53.125Z,11.151
2024-01-24T21:00:54.052Z,12.657
2024-01-24T21:05:59.528Z,14.77
2024-01-24T21:11:06.136Z,7.657
2024-01-24T21:15:47.934Z,7.169
2024-01-24T21:20:54.338Z,8.003
2024-01-24T21:25:46.899Z,8.274
2024-01-24T21:30:53.932Z,8.323
2024-01-24T21:35:51.713Z,7.619
2024-01-24T21:40:49.146Z,5.376
2024-01-24T21:45:57.702Z,4.651
2024-01-24T21:50:59.908Z,10.726
2024-01-24T21:55:53.768Z,2.571
2024-01-24T22:01:04.442Z,5.577
2024-01-24T22:05:59.009Z,2.972
2024-01-24T22:10:53.418Z,1.932
2024-01-24T22:15:48.247Z,6.195
2024-01-24T22:20:58.545Z,7.759
2024-01-24T22:25:47.869Z,5.127
2024-01-24T22:31:00.601Z,6.709
2024-01-24T22:35:56.682Z,6.492
2024-01-24T22:40:52.388Z,4.857
2024-01-24T22:45:55.380Z,5.139
2024-01-24T22:50:52.491Z,3.844
2024-01-24T22:55:55.257Z,5.582
2024-01-24T23:01:10.413Z,6.471
2024-01-24T23:05:52.205Z,6.096
2024-01-24T23:10:46.918Z,4.174
2024-01-24T23:15:58.058Z,3.696
2024-01-24T23:20:54.074Z,3.388
2024-01-24T23:25:53.949Z,3.768
2024-01-24T23:30:55.076Z,2.989
2024-01-24T23:35:50.468Z,2.604
2024-01-24T23:40:53.814Z,2.116
2024-01-24T23:45:54.800Z,3.665
2024-01-24T23:50:58.406Z,3.085
2024-01-24T23:55:53.511Z,2.826
